sensor_id;sensor_type;location;lat;lon;timestamp;P1;durP1;ratioP1;P2;durP2;ratioP2
53293;SDS011;39181;53.440;5.644;2023-11-22T00:00:08;7.50;;;4.60;;
53293;SDS011;39181;53.440;5.644;2023-11-22T00:02:35;8.38;;;4.50;;
53293;SDS011;39181;53.440;5.644;2023-11-22T00:05:00;7.18;;;4.82;;
53293;SDS011;39181;53.440;5.644;2023-11-22T00:07:26;7.40;;;4.07;;
53293;SDS011;39181;53.440;5.644;2023-11-22T00:09:55;7.65;;;5.05;;
53293;SDS011;39181;53.440;5.644;2023-11-22T00:12:21;8.27;;;4.50;;
53293;SDS011;39181;53.440;5.644;2023-11-22T00:14:48;16.60;;;5.07;;
53293;SDS011;39181;53.440;5.644;2023-11-22T00:17:13;10.25;;;4.95;;
53293;SDS011;39181;53.440;5.644;2023-11-22T00:19:39;8.02;;;5.40;;
53293;SDS011;39181;53.440;5.644;2023-11-22T00:22:05;5.97;;;4.03;;
53293;SDS011;39181;53.440;5.644;2023-11-22T00:24:38;6.03;;;4.18;;
53293;SDS011;39181;53.440;5.644;2023-11-22T00:27:04;7.90;;;4.15;;
53293;SDS011;39181;53.440;5.644;2023-11-22T00:29:30;7.55;;;5.00;;
53293;SDS011;39181;53.440;5.644;2023-11-22T00:31:55;9.32;;;4.70;;
53293;SDS011;39181;53.440;5.644;2023-11-22T00:34:21;10.95;;;5.68;;
53293;SDS011;39181;53.440;5.644;2023-11-22T00:36:48;10.55;;;5.32;;
53293;SDS011;39181;53.440;5.644;2023-11-22T00:39:14;10.38;;;5.82;;
53293;SDS011;39181;53.440;5.644;2023-11-22T00:41:39;11.60;;;6.32;;
53293;SDS011;39181;53.440;5.644;2023-11-22T00:44:05;10.80;;;6.07;;
53293;SDS011;39181;53.440;5.644;2023-11-22T00:46:31;10.25;;;5.85;;
53293;SDS011;39181;53.440;5.644;2023-11-22T00:48:57;9.55;;;5.60;;
53293;SDS011;39181;53.440;5.644;2023-11-22T00:51:23;10.43;;;6.28;;
53293;SDS011;39181;53.440;5.644;2023-11-22T00:53:48;11.13;;;6.63;;
53293;SDS011;39181;53.440;5.644;2023-11-22T00:56:15;13.43;;;6.82;;
53293;SDS011;39181;53.440;5.644;2023-11-22T00:58:40;12.10;;;6.90;;
53293;SDS011;39181;53.440;5.644;2023-11-22T01:01:06;13.43;;;7.78;;
53293;SDS011;39181;53.440;5.644;2023-11-22T01:03:31;15.43;;;7.95;;
53293;SDS011;39181;53.440;5.644;2023-11-22T01:05:57;13.90;;;8.57;;
53293;SDS011;39181;53.440;5.644;2023-11-22T01:08:23;15.00;;;8.13;;
53293;SDS011;39181;53.440;5.644;2023-11-22T01:10:48;12.82;;;7.40;;
53293;SDS011;39181;53.440;5.644;2023-11-22T01:13:14;15.43;;;8.60;;
53293;SDS011;39181;53.440;5.644;2023-11-22T01:15:40;14.00;;;8.35;;
53293;SDS011;39181;53.440;5.644;2023-11-22T01:18:06;11.77;;;6.80;;
53293;SDS011;39181;53.440;5.644;2023-11-22T01:20:32;11.43;;;6.43;;
53293;SDS011;39181;53.440;5.644;2023-11-22T01:22:57;13.40;;;7.68;;
53293;SDS011;39181;53.440;5.644;2023-11-22T01:25:23;13.63;;;7.22;;
53293;SDS011;39181;53.440;5.644;2023-11-22T01:27:48;11.77;;;7.63;;
53293;SDS011;39181;53.440;5.644;2023-11-22T01:30:14;14.57;;;7.50;;
53293;SDS011;39181;53.440;5.644;2023-11-22T01:32:40;12.57;;;7.00;;
53293;SDS011;39181;53.440;5.644;2023-11-22T01:35:05;13.80;;;8.15;;
53293;SDS011;39181;53.440;5.644;2023-11-22T01:37:31;14.95;;;7.70;;
53293;SDS011;39181;53.440;5.644;2023-11-22T01:39:57;11.68;;;7.28;;
53293;SDS011;39181;53.440;5.644;2023-11-22T01:42:23;13.68;;;7.60;;
53293;SDS011;39181;53.440;5.644;2023-11-22T01:44:50;12.98;;;7.30;;
53293;SDS011;39181;53.440;5.644;2023-11-22T01:47:17;13.82;;;7.55;;
53293;SDS011;39181;53.440;5.644;2023-11-22T01:49:43;14.00;;;7.60;;
53293;SDS011;39181;53.440;5.644;2023-11-22T01:52:09;13.07;;;7.22;;
53293;SDS011;39181;53.440;5.644;2023-11-22T01:54:35;14.57;;;7.45;;
53293;SDS011;39181;53.440;5.644;2023-11-22T01:57:02;14.32;;;7.72;;
53293;SDS011;39181;53.440;5.644;2023-11-22T01:59:28;12.05;;;7.07;;
53293;SDS011;39181;53.440;5.644;2023-11-22T02:01:56;15.13;;;7.63;;
53293;SDS011;39181;53.440;5.644;2023-11-22T02:04:21;15.48;;;7.40;;
53293;SDS011;39181;53.440;5.644;2023-11-22T02:06:47;13.23;;;7.78;;
53293;SDS011;39181;53.440;5.644;2023-11-22T02:09:12;12.75;;;7.30;;
53293;SDS011;39181;53.440;5.644;2023-11-22T02:11:41;15.00;;;7.32;;
53293;SDS011;39181;53.440;5.644;2023-11-22T02:14:15;11.70;;;7.22;;
53293;SDS011;39181;53.440;5.644;2023-11-22T02:16:41;16.27;;;7.85;;
53293;SDS011;39181;53.440;5.644;2023-11-22T02:19:08;12.68;;;7.80;;
53293;SDS011;39181;53.440;5.644;2023-11-22T02:24:05;14.65;;;8.13;;
53293;SDS011;39181;53.440;5.644;2023-11-22T02:26:32;17.20;;;8.10;;
53293;SDS011;39181;53.440;5.644;2023-11-22T02:28:58;18.58;;;8.30;;
53293;SDS011;39181;53.440;5.644;2023-11-22T02:31:24;15.48;;;8.40;;
53293;SDS011;39181;53.440;5.644;2023-11-22T02:33:52;19.20;;;8.85;;
53293;SDS011;39181;53.440;5.644;2023-11-22T02:36:18;14.10;;;8.13;;
53293;SDS011;39181;53.440;5.644;2023-11-22T02:38:43;14.90;;;8.40;;
53293;SDS011;39181;53.440;5.644;2023-11-22T02:41:11;15.77;;;8.00;;
53293;SDS011;39181;53.440;5.644;2023-11-22T02:43:38;14.10;;;8.52;;
53293;SDS011;39181;53.440;5.644;2023-11-22T02:46:04;18.05;;;9.43;;
53293;SDS011;39181;53.440;5.644;2023-11-22T02:48:30;20.02;;;9.00;;
53293;SDS011;39181;53.440;5.644;2023-11-22T02:50:55;17.45;;;8.23;;
53293;SDS011;39181;53.440;5.644;2023-11-22T02:53:21;16.65;;;8.77;;
53293;SDS011;39181;53.440;5.644;2023-11-22T02:55:47;15.15;;;8.27;;
53293;SDS011;39181;53.440;5.644;2023-11-22T02:58:12;15.05;;;7.72;;
53293;SDS011;39181;53.440;5.644;2023-11-22T03:00:41;14.20;;;7.60;;
53293;SDS011;39181;53.440;5.644;2023-11-22T03:03:07;17.48;;;9.00;;
53293;SDS011;39181;53.440;5.644;2023-11-22T03:05:35;15.98;;;8.10;;
53293;SDS011;39181;53.440;5.644;2023-11-22T03:08:02;19.15;;;8.95;;
53293;SDS011;39181;53.440;5.644;2023-11-22T03:10:28;20.23;;;9.45;;
53293;SDS011;39181;53.440;5.644;2023-11-22T03:12:55;20.75;;;10.23;;
53293;SDS011;39181;53.440;5.644;2023-11-22T03:15:20;20.25;;;10.65;;
53293;SDS011;39181;53.440;5.644;2023-11-22T03:17:46;18.33;;;9.63;;
53293;SDS011;39181;53.440;5.644;2023-11-22T03:20:13;21.45;;;10.80;;
53293;SDS011;39181;53.440;5.644;2023-11-22T03:22:40;19.75;;;10.02;;
53293;SDS011;39181;53.440;5.644;2023-11-22T03:25:08;21.95;;;10.80;;
53293;SDS011;39181;53.440;5.644;2023-11-22T03:27:35;21.73;;;10.85;;
53293;SDS011;39181;53.440;5.644;2023-11-22T03:30:01;18.13;;;10.20;;
53293;SDS011;39181;53.440;5.644;2023-11-22T03:32:27;17.13;;;9.60;;
53293;SDS011;39181;53.440;5.644;2023-11-22T03:34:54;20.17;;;10.02;;
53293;SDS011;39181;53.440;5.644;2023-11-22T03:37:20;18.73;;;9.75;;
53293;SDS011;39181;53.440;5.644;2023-11-22T03:39:45;19.17;;;11.18;;
53293;SDS011;39181;53.440;5.644;2023-11-22T03:42:14;17.27;;;9.40;;
53293;SDS011;39181;53.440;5.644;2023-11-22T03:44:41;18.50;;;10.60;;
53293;SDS011;39181;53.440;5.644;2023-11-22T03:47:07;20.48;;;10.73;;
53293;SDS011;39181;53.440;5.644;2023-11-22T03:49:32;21.85;;;10.75;;
53293;SDS011;39181;53.440;5.644;2023-11-22T03:51:58;15.88;;;9.40;;
53293;SDS011;39181;53.440;5.644;2023-11-22T03:54:23;15.98;;;9.18;;
53293;SDS011;39181;53.440;5.644;2023-11-22T03:56:49;18.40;;;8.52;;
53293;SDS011;39181;53.440;5.644;2023-11-22T03:59:15;15.38;;;8.82;;
53293;SDS011;39181;53.440;5.644;2023-11-22T04:01:41;16.30;;;9.27;;
53293;SDS011;39181;53.440;5.644;2023-11-22T04:04:06;14.68;;;8.43;;
53293;SDS011;39181;53.440;5.644;2023-11-22T04:06:35;15.60;;;9.05;;
53293;SDS011;39181;53.440;5.644;2023-11-22T04:09:00;19.23;;;9.30;;
53293;SDS011;39181;53.440;5.644;2023-11-22T04:11:26;19.88;;;10.05;;
53293;SDS011;39181;53.440;5.644;2023-11-22T04:13:54;19.70;;;10.90;;
53293;SDS011;39181;53.440;5.644;2023-11-22T04:16:20;21.52;;;10.70;;
53293;SDS011;39181;53.440;5.644;2023-11-22T04:18:45;18.92;;;10.23;;
53293;SDS011;39181;53.440;5.644;2023-11-22T04:21:11;20.83;;;11.10;;
53293;SDS011;39181;53.440;5.644;2023-11-22T04:23:36;18.45;;;10.10;;
53293;SDS011;39181;53.440;5.644;2023-11-22T04:26:02;24.75;;;9.65;;
53293;SDS011;39181;53.440;5.644;2023-11-22T04:28:28;17.73;;;9.48;;
53293;SDS011;39181;53.440;5.644;2023-11-22T04:30:54;18.15;;;9.18;;
53293;SDS011;39181;53.440;5.644;2023-11-22T04:33:21;16.58;;;9.60;;
53293;SDS011;39181;53.440;5.644;2023-11-22T04:35:48;19.30;;;10.40;;
53293;SDS011;39181;53.440;5.644;2023-11-22T04:38:14;17.77;;;10.27;;
53293;SDS011;39181;53.440;5.644;2023-11-22T04:40:39;18.80;;;10.27;;
53293;SDS011;39181;53.440;5.644;2023-11-22T04:43:06;19.45;;;9.85;;
53293;SDS011;39181;53.440;5.644;2023-11-22T04:45:32;17.17;;;8.95;;
53293;SDS011;39181;53.440;5.644;2023-11-22T04:47:58;14.38;;;8.73;;
53293;SDS011;39181;53.440;5.644;2023-11-22T04:50:23;17.45;;;8.93;;
53293;SDS011;39181;53.440;5.644;2023-11-22T04:52:49;17.08;;;9.32;;
53293;SDS011;39181;53.440;5.644;2023-11-22T04:55:15;17.48;;;9.25;;
53293;SDS011;39181;53.440;5.644;2023-11-22T04:57:40;15.10;;;8.93;;
53293;SDS011;39181;53.440;5.644;2023-11-22T05:00:06;17.30;;;8.98;;
53293;SDS011;39181;53.440;5.644;2023-11-22T05:02:33;19.48;;;9.80;;
53293;SDS011;39181;53.440;5.644;2023-11-22T05:04:59;15.27;;;8.40;;
53293;SDS011;39181;53.440;5.644;2023-11-22T05:07:24;17.83;;;9.32;;
53293;SDS011;39181;53.440;5.644;2023-11-22T05:09:50;16.52;;;8.60;;
53293;SDS011;39181;53.440;5.644;2023-11-22T05:12:15;17.95;;;8.88;;
53293;SDS011;39181;53.440;5.644;2023-11-22T05:14:41;15.15;;;7.60;;
53293;SDS011;39181;53.440;5.644;2023-11-22T05:17:08;10.23;;;6.30;;
53293;SDS011;39181;53.440;5.644;2023-11-22T05:19:34;13.75;;;6.85;;
53293;SDS011;39181;53.440;5.644;2023-11-22T05:22:00;11.98;;;7.22;;
53293;SDS011;39181;53.440;5.644;2023-11-22T05:24:25;14.23;;;7.00;;
53293;SDS011;39181;53.440;5.644;2023-11-22T05:26:51;13.43;;;7.18;;
53293;SDS011;39181;53.440;5.644;2023-11-22T05:29:17;11.15;;;6.78;;
53293;SDS011;39181;53.440;5.644;2023-11-22T05:31:42;11.88;;;7.00;;
53293;SDS011;39181;53.440;5.644;2023-11-22T05:34:08;14.32;;;7.07;;
53293;SDS011;39181;53.440;5.644;2023-11-22T05:36:33;15.93;;;7.82;;
53293;SDS011;39181;53.440;5.644;2023-11-22T05:38:59;14.15;;;7.72;;
53293;SDS011;39181;53.440;5.644;2023-11-22T05:41:25;15.70;;;8.10;;
53293;SDS011;39181;53.440;5.644;2023-11-22T05:43:51;16.27;;;8.27;;
53293;SDS011;39181;53.440;5.644;2023-11-22T05:46:17;19.92;;;9.75;;
53293;SDS011;39181;53.440;5.644;2023-11-22T05:48:50;20.45;;;9.02;;
53293;SDS011;39181;53.440;5.644;2023-11-22T05:51:16;15.55;;;7.97;;
53293;SDS011;39181;53.440;5.644;2023-11-22T05:53:42;20.85;;;8.55;;
53293;SDS011;39181;53.440;5.644;2023-11-22T05:56:08;13.70;;;8.48;;
53293;SDS011;39181;53.440;5.644;2023-11-22T05:58:34;19.10;;;8.48;;
53293;SDS011;39181;53.440;5.644;2023-11-22T06:01:06;15.27;;;7.90;;
53293;SDS011;39181;53.440;5.644;2023-11-22T06:03:33;16.70;;;8.32;;
53293;SDS011;39181;53.440;5.644;2023-11-22T06:06:00;17.10;;;8.25;;
53293;SDS011;39181;53.440;5.644;2023-11-22T06:08:26;14.68;;;7.88;;
53293;SDS011;39181;53.440;5.644;2023-11-22T06:10:51;18.05;;;9.48;;
53293;SDS011;39181;53.440;5.644;2023-11-22T06:13:18;17.05;;;8.80;;
53293;SDS011;39181;53.440;5.644;2023-11-22T06:15:44;21.70;;;9.38;;
53293;SDS011;39181;53.440;5.644;2023-11-22T06:18:09;15.00;;;9.00;;
53293;SDS011;39181;53.440;5.644;2023-11-22T06:20:35;18.30;;;8.98;;
53293;SDS011;39181;53.440;5.644;2023-11-22T06:23:01;14.95;;;8.55;;
53293;SDS011;39181;53.440;5.644;2023-11-22T06:25:27;18.10;;;8.70;;
53293;SDS011;39181;53.440;5.644;2023-11-22T06:27:52;13.77;;;8.02;;
53293;SDS011;39181;53.440;5.644;2023-11-22T06:30:18;17.40;;;8.75;;
53293;SDS011;39181;53.440;5.644;2023-11-22T06:32:44;16.92;;;7.72;;
53293;SDS011;39181;53.440;5.644;2023-11-22T06:35:10;15.77;;;7.95;;
53293;SDS011;39181;53.440;5.644;2023-11-22T06:37:40;14.80;;;8.13;;
53293;SDS011;39181;53.440;5.644;2023-11-22T06:40:06;18.08;;;8.05;;
53293;SDS011;39181;53.440;5.644;2023-11-22T06:42:40;16.35;;;8.75;;
53293;SDS011;39181;53.440;5.644;2023-11-22T06:45:06;14.70;;;7.20;;
53293;SDS011;39181;53.440;5.644;2023-11-22T06:47:35;14.65;;;8.30;;
53293;SDS011;39181;53.440;5.644;2023-11-22T06:50:01;18.52;;;8.38;;
53293;SDS011;39181;53.440;5.644;2023-11-22T06:52:34;17.27;;;8.43;;
53293;SDS011;39181;53.440;5.644;2023-11-22T06:55:06;17.85;;;8.32;;
53293;SDS011;39181;53.440;5.644;2023-11-22T06:57:33;17.48;;;8.93;;
53293;SDS011;39181;53.440;5.644;2023-11-22T07:00:00;17.45;;;8.80;;
53293;SDS011;39181;53.440;5.644;2023-11-22T07:02:29;17.83;;;8.70;;
53293;SDS011;39181;53.440;5.644;2023-11-22T07:04:55;16.52;;;8.38;;
53293;SDS011;39181;53.440;5.644;2023-11-22T07:07:21;15.70;;;7.88;;
53293;SDS011;39181;53.440;5.644;2023-11-22T07:09:48;15.23;;;8.02;;
53293;SDS011;39181;53.440;5.644;2023-11-22T07:12:13;18.08;;;8.00;;
53293;SDS011;39181;53.440;5.644;2023-11-22T07:14:39;18.95;;;8.77;;
53293;SDS011;39181;53.440;5.644;2023-11-22T07:17:04;22.77;;;8.90;;
53293;SDS011;39181;53.440;5.644;2023-11-22T07:19:32;19.02;;;9.18;;
53293;SDS011;39181;53.440;5.644;2023-11-22T07:21:59;14.50;;;7.88;;
53293;SDS011;39181;53.440;5.644;2023-11-22T07:24:26;18.23;;;8.98;;
53293;SDS011;39181;53.440;5.644;2023-11-22T07:26:52;15.93;;;8.95;;
53293;SDS011;39181;53.440;5.644;2023-11-22T07:29:18;19.20;;;9.85;;
53293;SDS011;39181;53.440;5.644;2023-11-22T07:31:43;15.85;;;8.27;;
53293;SDS011;39181;53.440;5.644;2023-11-22T07:34:09;19.30;;;10.25;;
53293;SDS011;39181;53.440;5.644;2023-11-22T07:36:37;22.05;;;10.02;;
53293;SDS011;39181;53.440;5.644;2023-11-22T07:39:05;22.77;;;9.88;;
53293;SDS011;39181;53.440;5.644;2023-11-22T07:41:30;20.80;;;9.48;;
53293;SDS011;39181;53.440;5.644;2023-11-22T07:43:56;18.58;;;9.82;;
53293;SDS011;39181;53.440;5.644;2023-11-22T07:46:22;21.05;;;9.77;;
53293;SDS011;39181;53.440;5.644;2023-11-22T07:48:47;19.08;;;9.77;;
53293;SDS011;39181;53.440;5.644;2023-11-22T07:51:14;16.00;;;9.25;;
53293;SDS011;39181;53.440;5.644;2023-11-22T07:53:41;19.00;;;10.82;;
53293;SDS011;39181;53.440;5.644;2023-11-22T07:56:08;17.58;;;9.07;;
53293;SDS011;39181;53.440;5.644;2023-11-22T07:58:34;19.75;;;10.10;;
53293;SDS011;39181;53.440;5.644;2023-11-22T08:01:00;21.85;;;9.02;;
53293;SDS011;39181;53.440;5.644;2023-11-22T08:03:30;21.48;;;10.05;;
53293;SDS011;39181;53.440;5.644;2023-11-22T08:05:56;21.88;;;10.45;;
53293;SDS011;39181;53.440;5.644;2023-11-22T08:08:21;23.83;;;10.50;;
53293;SDS011;39181;53.440;5.644;2023-11-22T08:10:48;19.38;;;9.57;;
53293;SDS011;39181;53.440;5.644;2023-11-22T08:13:16;18.80;;;10.30;;
53293;SDS011;39181;53.440;5.644;2023-11-22T08:15:44;21.63;;;9.80;;
53293;SDS011;39181;53.440;5.644;2023-11-22T08:18:11;18.63;;;10.90;;
53293;SDS011;39181;53.440;5.644;2023-11-22T08:20:37;19.33;;;9.80;;
53293;SDS011;39181;53.440;5.644;2023-11-22T08:23:03;21.60;;;9.77;;
53293;SDS011;39181;53.440;5.644;2023-11-22T08:25:31;20.67;;;10.20;;
53293;SDS011;39181;53.440;5.644;2023-11-22T08:27:56;21.35;;;9.50;;
53293;SDS011;39181;53.440;5.644;2023-11-22T08:30:22;18.85;;;10.18;;
53293;SDS011;39181;53.440;5.644;2023-11-22T08:32:48;24.25;;;10.38;;
53293;SDS011;39181;53.440;5.644;2023-11-22T08:35:18;18.33;;;9.52;;
53293;SDS011;39181;53.440;5.644;2023-11-22T08:37:46;18.30;;;9.88;;
53293;SDS011;39181;53.440;5.644;2023-11-22T08:40:12;17.75;;;9.20;;
53293;SDS011;39181;53.440;5.644;2023-11-22T08:42:41;18.27;;;9.00;;
53293;SDS011;39181;53.440;5.644;2023-11-22T08:45:07;16.20;;;9.05;;
53293;SDS011;39181;53.440;5.644;2023-11-22T08:47:33;21.20;;;9.60;;
53293;SDS011;39181;53.440;5.644;2023-11-22T08:49:59;19.42;;;9.73;;
53293;SDS011;39181;53.440;5.644;2023-11-22T08:52:28;20.67;;;9.43;;
53293;SDS011;39181;53.440;5.644;2023-11-22T08:54:55;17.88;;;9.85;;
53293;SDS011;39181;53.440;5.644;2023-11-22T08:57:21;19.95;;;10.18;;
53293;SDS011;39181;53.440;5.644;2023-11-22T08:59:47;20.15;;;10.23;;
53293;SDS011;39181;53.440;5.644;2023-11-22T09:02:14;22.73;;;10.38;;
53293;SDS011;39181;53.440;5.644;2023-11-22T09:04:40;20.25;;;10.25;;
53293;SDS011;39181;53.440;5.644;2023-11-22T09:07:06;22.60;;;11.25;;
53293;SDS011;39181;53.440;5.644;2023-11-22T09:09:32;19.30;;;10.52;;
53293;SDS011;39181;53.440;5.644;2023-11-22T09:12:00;21.27;;;10.30;;
53293;SDS011;39181;53.440;5.644;2023-11-22T09:14:26;18.92;;;10.25;;
53293;SDS011;39181;53.440;5.644;2023-11-22T09:16:51;18.25;;;9.95;;
53293;SDS011;39181;53.440;5.644;2023-11-22T09:19:21;17.17;;;10.02;;
53293;SDS011;39181;53.440;5.644;2023-11-22T09:21:47;22.33;;;10.73;;
53293;SDS011;39181;53.440;5.644;2023-11-22T09:24:13;23.48;;;10.63;;
53293;SDS011;39181;53.440;5.644;2023-11-22T09:26:39;19.23;;;9.68;;
53293;SDS011;39181;53.440;5.644;2023-11-22T09:29:04;20.75;;;10.93;;
53293;SDS011;39181;53.440;5.644;2023-11-22T09:31:30;22.30;;;11.88;;
53293;SDS011;39181;53.440;5.644;2023-11-22T09:33:56;20.38;;;10.93;;
53293;SDS011;39181;53.440;5.644;2023-11-22T09:36:22;18.67;;;9.63;;
53293;SDS011;39181;53.440;5.644;2023-11-22T09:38:50;21.42;;;10.82;;
53293;SDS011;39181;53.440;5.644;2023-11-22T09:41:16;23.30;;;11.35;;
53293;SDS011;39181;53.440;5.644;2023-11-22T09:43:42;22.60;;;11.18;;
53293;SDS011;39181;53.440;5.644;2023-11-22T09:46:09;20.10;;;10.05;;
53293;SDS011;39181;53.440;5.644;2023-11-22T09:48:36;21.58;;;11.05;;
53293;SDS011;39181;53.440;5.644;2023-11-22T09:51:04;21.65;;;11.40;;
53293;SDS011;39181;53.440;5.644;2023-11-22T09:53:58;20.35;;;10.15;;
53293;SDS011;39181;53.440;5.644;2023-11-22T09:56:27;20.83;;;10.88;;
53293;SDS011;39181;53.440;5.644;2023-11-22T09:58:53;18.92;;;10.57;;
53293;SDS011;39181;53.440;5.644;2023-11-22T10:01:21;20.70;;;10.38;;
53293;SDS011;39181;53.440;5.644;2023-11-22T10:03:50;17.98;;;10.45;;
53293;SDS011;39181;53.440;5.644;2023-11-22T10:06:16;25.00;;;11.13;;
53293;SDS011;39181;53.440;5.644;2023-11-22T10:08:42;17.30;;;10.10;;
53293;SDS011;39181;53.440;5.644;2023-11-22T10:11:08;19.65;;;10.52;;
53293;SDS011;39181;53.440;5.644;2023-11-22T10:13:34;25.75;;;11.25;;
53293;SDS011;39181;53.440;5.644;2023-11-22T10:16:10;16.38;;;9.88;;
53293;SDS011;39181;53.440;5.644;2023-11-22T10:18:43;18.48;;;10.90;;
53293;SDS011;39181;53.440;5.644;2023-11-22T10:21:24;18.67;;;10.18;;
53293;SDS011;39181;53.440;5.644;2023-11-22T10:23:54;18.52;;;10.27;;
53293;SDS011;39181;53.440;5.644;2023-11-22T10:26:21;21.70;;;11.20;;
53293;SDS011;39181;53.440;5.644;2023-11-22T10:28:50;18.55;;;10.85;;
53293;SDS011;39181;53.440;5.644;2023-11-22T10:31:19;20.65;;;10.57;;
53293;SDS011;39181;53.440;5.644;2023-11-22T10:33:46;18.13;;;10.40;;
53293;SDS011;39181;53.440;5.644;2023-11-22T10:36:13;21.35;;;10.32;;
53293;SDS011;39181;53.440;5.644;2023-11-22T10:38:40;21.85;;;10.45;;
53293;SDS011;39181;53.440;5.644;2023-11-22T10:41:07;19.38;;;10.52;;
53293;SDS011;39181;53.440;5.644;2023-11-22T10:43:37;17.45;;;10.27;;
53293;SDS011;39181;53.440;5.644;2023-11-22T10:46:03;21.25;;;9.95;;
53293;SDS011;39181;53.440;5.644;2023-11-22T10:48:30;18.20;;;10.50;;
53293;SDS011;39181;53.440;5.644;2023-11-22T10:51:00;18.13;;;9.98;;
53293;SDS011;39181;53.440;5.644;2023-11-22T10:53:39;17.30;;;9.68;;
53293;SDS011;39181;53.440;5.644;2023-11-22T10:56:11;16.33;;;9.05;;
53293;SDS011;39181;53.440;5.644;2023-11-22T10:58:47;18.35;;;9.43;;
53293;SDS011;39181;53.440;5.644;2023-11-22T11:01:25;18.30;;;9.73;;
53293;SDS011;39181;53.440;5.644;2023-11-22T11:06:36;14.00;;;8.43;;
53293;SDS011;39181;53.440;5.644;2023-11-22T11:09:06;14.27;;;9.10;;
53293;SDS011;39181;53.440;5.644;2023-11-22T11:11:34;20.42;;;9.63;;
53293;SDS011;39181;53.440;5.644;2023-11-22T11:14:01;14.70;;;8.73;;
53293;SDS011;39181;53.440;5.644;2023-11-22T11:16:29;15.13;;;9.13;;
53293;SDS011;39181;53.440;5.644;2023-11-22T11:18:57;19.85;;;9.23;;
53293;SDS011;39181;53.440;5.644;2023-11-22T11:21:24;17.73;;;9.40;;
53293;SDS011;39181;53.440;5.644;2023-11-22T11:23:51;14.52;;;8.75;;
53293;SDS011;39181;53.440;5.644;2023-11-22T11:26:20;14.55;;;8.70;;
53293;SDS011;39181;53.440;5.644;2023-11-22T11:28:47;13.93;;;7.88;;
53293;SDS011;39181;53.440;5.644;2023-11-22T11:31:14;17.30;;;9.70;;
53293;SDS011;39181;53.440;5.644;2023-11-22T11:36:24;17.65;;;8.95;;
53293;SDS011;39181;53.440;5.644;2023-11-22T11:38:52;14.75;;;8.32;;
53293;SDS011;39181;53.440;5.644;2023-11-22T11:41:23;15.77;;;8.20;;
53293;SDS011;39181;53.440;5.644;2023-11-22T11:43:52;20.55;;;9.50;;
53293;SDS011;39181;53.440;5.644;2023-11-22T11:46:19;19.80;;;8.35;;
53293;SDS011;39181;53.440;5.644;2023-11-22T11:48:48;13.88;;;8.90;;
53293;SDS011;39181;53.440;5.644;2023-11-22T11:51:16;16.70;;;9.13;;
53293;SDS011;39181;53.440;5.644;2023-11-22T11:53:44;14.77;;;8.48;;
53293;SDS011;39181;53.440;5.644;2023-11-22T11:56:10;14.45;;;7.85;;
53293;SDS011;39181;53.440;5.644;2023-11-22T11:58:36;12.27;;;7.97;;
53293;SDS011;39181;53.440;5.644;2023-11-22T12:01:04;14.82;;;8.30;;
53293;SDS011;39181;53.440;5.644;2023-11-22T12:03:30;15.00;;;8.10;;
53293;SDS011;39181;53.440;5.644;2023-11-22T12:05:56;16.25;;;7.70;;
53293;SDS011;39181;53.440;5.644;2023-11-22T12:08:21;14.73;;;8.50;;
53293;SDS011;39181;53.440;5.644;2023-11-22T12:10:47;14.77;;;8.68;;
53293;SDS011;39181;53.440;5.644;2023-11-22T12:13:17;14.77;;;7.85;;
53293;SDS011;39181;53.440;5.644;2023-11-22T12:15:43;14.75;;;7.50;;
53293;SDS011;39181;53.440;5.644;2023-11-22T12:18:09;14.73;;;8.48;;
53293;SDS011;39181;53.440;5.644;2023-11-22T12:20:36;13.13;;;7.47;;
53293;SDS011;39181;53.440;5.644;2023-11-22T12:23:02;14.45;;;8.10;;
53293;SDS011;39181;53.440;5.644;2023-11-22T12:25:29;15.05;;;7.88;;
53293;SDS011;39181;53.440;5.644;2023-11-22T12:27:55;13.30;;;7.70;;
53293;SDS011;39181;53.440;5.644;2023-11-22T12:30:28;12.60;;;7.13;;
53293;SDS011;39181;53.440;5.644;2023-11-22T12:33:05;14.75;;;8.63;;
53293;SDS011;39181;53.440;5.644;2023-11-22T12:35:32;12.68;;;7.95;;
53293;SDS011;39181;53.440;5.644;2023-11-22T12:38:01;13.65;;;8.40;;
53293;SDS011;39181;53.440;5.644;2023-11-22T12:40:30;15.90;;;7.20;;
53293;SDS011;39181;53.440;5.644;2023-11-22T12:42:57;13.20;;;8.10;;
53293;SDS011;39181;53.440;5.644;2023-11-22T12:45:24;13.70;;;8.68;;
53293;SDS011;39181;53.440;5.644;2023-11-22T12:47:51;18.73;;;8.65;;
53293;SDS011;39181;53.440;5.644;2023-11-22T12:50:29;13.45;;;8.65;;
53293;SDS011;39181;53.440;5.644;2023-11-22T12:53:08;16.38;;;8.23;;
53293;SDS011;39181;53.440;5.644;2023-11-22T12:55:36;12.23;;;7.97;;
53293;SDS011;39181;53.440;5.644;2023-11-22T12:58:02;13.75;;;8.60;;
53293;SDS011;39181;53.440;5.644;2023-11-22T13:00:28;17.20;;;9.27;;
53293;SDS011;39181;53.440;5.644;2023-11-22T13:02:58;15.50;;;9.55;;
53293;SDS011;39181;53.440;5.644;2023-11-22T13:05:24;16.30;;;8.85;;
53293;SDS011;39181;53.440;5.644;2023-11-22T13:07:50;16.73;;;9.02;;
53293;SDS011;39181;53.440;5.644;2023-11-22T13:10:16;20.92;;;9.57;;
53293;SDS011;39181;53.440;5.644;2023-11-22T13:12:44;15.25;;;9.25;;
53293;SDS011;39181;53.440;5.644;2023-11-22T13:15:10;13.77;;;8.57;;
53293;SDS011;39181;53.440;5.644;2023-11-22T13:17:37;16.70;;;8.50;;
53293;SDS011;39181;53.440;5.644;2023-11-22T13:20:06;19.60;;;9.85;;
53293;SDS011;39181;53.440;5.644;2023-11-22T13:22:39;16.38;;;9.25;;
53293;SDS011;39181;53.440;5.644;2023-11-22T13:25:06;13.45;;;8.80;;
53293;SDS011;39181;53.440;5.644;2023-11-22T13:27:33;17.88;;;10.07;;
53293;SDS011;39181;53.440;5.644;2023-11-22T13:29:59;14.27;;;8.80;;
53293;SDS011;39181;53.440;5.644;2023-11-22T13:32:25;17.70;;;10.25;;
53293;SDS011;39181;53.440;5.644;2023-11-22T13:34:51;18.95;;;10.10;;
53293;SDS011;39181;53.440;5.644;2023-11-22T13:37:23;16.20;;;10.98;;
53293;SDS011;39181;53.440;5.644;2023-11-22T13:39:49;20.58;;;10.55;;
53293;SDS011;39181;53.440;5.644;2023-11-22T13:42:15;19.30;;;10.60;;
53293;SDS011;39181;53.440;5.644;2023-11-22T13:44:41;17.10;;;10.82;;
53293;SDS011;39181;53.440;5.644;2023-11-22T13:47:09;17.77;;;10.50;;
53293;SDS011;39181;53.440;5.644;2023-11-22T13:49:35;18.60;;;10.48;;
53293;SDS011;39181;53.440;5.644;2023-11-22T13:52:02;20.70;;;10.80;;
53293;SDS011;39181;53.440;5.644;2023-11-22T13:54:28;20.85;;;11.23;;
53293;SDS011;39181;53.440;5.644;2023-11-22T13:56:53;17.35;;;10.80;;
53293;SDS011;39181;53.440;5.644;2023-11-22T13:59:19;16.55;;;9.93;;
53293;SDS011;39181;53.440;5.644;2023-11-22T14:01:45;18.67;;;10.25;;
53293;SDS011;39181;53.440;5.644;2023-11-22T14:04:11;17.08;;;9.80;;
53293;SDS011;39181;53.440;5.644;2023-11-22T14:06:36;19.60;;;10.07;;
53293;SDS011;39181;53.440;5.644;2023-11-22T14:09:02;17.27;;;11.05;;
53293;SDS011;39181;53.440;5.644;2023-11-22T14:11:28;16.95;;;10.07;;
53293;SDS011;39181;53.440;5.644;2023-11-22T14:13:54;17.15;;;10.40;;
53293;SDS011;39181;53.440;5.644;2023-11-22T14:16:20;18.67;;;11.10;;
53293;SDS011;39181;53.440;5.644;2023-11-22T14:18:46;14.75;;;9.73;;
53293;SDS011;39181;53.440;5.644;2023-11-22T14:21:12;18.92;;;9.50;;
53293;SDS011;39181;53.440;5.644;2023-11-22T14:23:37;19.90;;;11.05;;
53293;SDS011;39181;53.440;5.644;2023-11-22T14:26:03;20.67;;;11.93;;
53293;SDS011;39181;53.440;5.644;2023-11-22T14:28:29;16.63;;;10.30;;
53293;SDS011;39181;53.440;5.644;2023-11-22T14:30:55;18.13;;;11.02;;
53293;SDS011;39181;53.440;5.644;2023-11-22T14:33:20;17.33;;;10.23;;
53293;SDS011;39181;53.440;5.644;2023-11-22T14:35:46;17.85;;;10.60;;